sensor_id;sensor_type;location;lat;lon;timestamp;pressure;altitude;pressure_sealevel;temperature;humidity
6938;BME280;40040;42.706;23.372;2024-03-23T00:52:41;145351.72;;;4.75;92.94
6938;BME280;40040;42.706;23.372;2024-03-23T00:55:07;145356.66;;;4.77;92.45
6938;BME280;40040;42.706;23.372;2024-03-23T00:57:34;145270.69;;;4.41;92.21
6938;BME280;40040;42.706;23.372;2024-03-23T01:00:00;145341.94;;;4.71;92.99
6938;BME280;40040;42.706;23.372;2024-03-23T01:02:26;145337.03;;;4.69;93.33
6938;BME280;40040;42.706;23.372;2024-03-23T01:04:52;145317.34;;;4.60;93.68
6938;BME280;40040;42.706;23.372;2024-03-23T01:07:19;145307.56;;;4.56;94.09
6938;BME280;40040;42.706;23.372;2024-03-23T01:09:46;145303.84;;;4.55;94.40
6938;BME280;40040;42.706;23.372;2024-03-23T01:12:13;145310.00;;;4.57;93.82
6938;BME280;40040;42.706;23.372;2024-03-23T01:14:39;145300.16;;;4.53;93.66
6938;BME280;40040;42.706;23.372;2024-03-23T01:17:07;145307.56;;;4.56;92.64
6938;BME280;40040;42.706;23.372;2024-03-23T01:19:33;145297.72;;;4.52;92.21
6938;BME280;40040;42.706;23.372;2024-03-23T01:22:00;145195.84;;;4.11;92.01
6938;BME280;40040;42.706;23.372;2024-03-23T01:24:26;145297.72;;;4.52;91.90
6938;BME280;40040;42.706;23.372;2024-03-23T01:26:54;145292.81;;;4.50;92.02
6938;BME280;40040;42.706;23.372;2024-03-23T01:29:20;145295.28;;;4.51;92.11
6938;BME280;40040;42.706;23.372;2024-03-23T01:31:47;145291.56;;;4.50;91.94
6938;BME280;40040;42.706;23.372;2024-03-23T01:34:13;145275.63;;;4.43;92.42
6938;BME280;40040;42.706;23.372;2024-03-23T01:36:40;145221.63;;;4.21;92.53
6938;BME280;40040;42.706;23.372;2024-03-23T01:39:07;145246.16;;;4.31;92.88
6938;BME280;40040;42.706;23.372;2024-03-23T01:41:34;145194.63;;;4.10;93.15
6938;BME280;40040;42.706;23.372;2024-03-23T01:44:05;145192.19;;;4.09;93.66
6938;BME280;40040;42.706;23.372;2024-03-23T01:46:32;145201.97;;;4.13;94.69
6938;BME280;40040;42.706;23.372;2024-03-23T01:48:58;145189.69;;;4.08;95.45
6938;BME280;40040;42.706;23.372;2024-03-23T01:51:25;145190.94;;;4.09;95.36
6938;BME280;40040;42.706;23.372;2024-03-23T01:53:53;145190.94;;;4.09;95.60
6938;BME280;40040;42.706;23.372;2024-03-23T01:56:20;145165.16;;;3.98;95.84
6938;BME280;40040;42.706;23.372;2024-03-23T01:58:46;145189.69;;;4.08;95.84
6938;BME280;40040;42.706;23.372;2024-03-23T02:01:14;145179.91;;;4.04;96.13
6938;BME280;40040;42.706;23.372;2024-03-23T02:03:40;145147.97;;;3.91;95.79
6938;BME280;40040;42.706;23.372;2024-03-23T02:06:08;145157.81;;;3.95;96.93
6938;BME280;40040;42.706;23.372;2024-03-23T02:08:34;145130.81;;;3.84;97.20
6938;BME280;40040;42.706;23.372;2024-03-23T02:11:01;145133.28;;;3.85;97.79
6938;BME280;40040;42.706;23.372;2024-03-23T02:13:27;145079.28;;;3.63;98.35
6938;BME280;40040;42.706;23.372;2024-03-23T02:15:53;145094.03;;;3.69;98.33
6938;BME280;40040;42.706;23.372;2024-03-23T02:18:20;145123.47;;;3.81;98.42
6938;BME280;40040;42.706;23.372;2024-03-23T02:20:47;145118.53;;;3.79;98.54
6938;BME280;40040;42.706;23.372;2024-03-23T02:23:14;145113.63;;;3.77;98.62
6938;BME280;40040;42.706;23.372;2024-03-23T02:25:41;145112.38;;;3.77;98.67
6938;BME280;40040;42.706;23.372;2024-03-23T02:28:08;145112.38;;;3.77;98.49
6938;BME280;40040;42.706;23.372;2024-03-23T02:30:35;145098.94;;;3.71;98.49
6938;BME280;40040;42.706;23.372;2024-03-23T02:33:01;145092.78;;;3.69;98.56
6938;BME280;40040;42.706;23.372;2024-03-23T02:35:27;145080.50;;;3.64;99.31
6938;BME280;40040;42.706;23.372;2024-03-23T02:37:53;145080.50;;;3.64;99.03
6938;BME280;40040;42.706;23.372;2024-03-23T02:40:23;145067.00;;;3.58;99.43
6938;BME280;40040;42.706;23.372;2024-03-23T02:42:49;145041.25;;;3.47;99.16
6938;BME280;40040;42.706;23.372;2024-03-23T02:45:16;145049.84;;;3.51;99.46
6938;BME280;40040;42.706;23.372;2024-03-23T02:47:41;145057.19;;;3.54;99.61
6938;BME280;40040;42.706;23.372;2024-03-23T02:50:08;145042.50;;;3.48;99.77
6938;BME280;40040;42.706;23.372;2024-03-23T02:52:34;145009.38;;;3.34;100.00
6938;BME280;40040;42.706;23.372;2024-03-23T02:55:01;145030.22;;;3.43;100.00
6938;BME280;40040;42.706;23.372;2024-03-23T02:57:29;145022.84;;;3.40;100.00
6938;BME280;40040;42.706;23.372;2024-03-23T02:59:56;145019.16;;;3.38;100.00
6938;BME280;40040;42.706;23.372;2024-03-23T03:02:22;145015.50;;;3.37;100.00
6938;BME280;40040;42.706;23.372;2024-03-23T03:04:48;145014.25;;;3.36;100.00
6938;BME280;40040;42.706;23.372;2024-03-23T03:07:14;145003.22;;;3.32;100.00
6938;BME280;40040;42.706;23.372;2024-03-23T03:09:41;145009.38;;;3.34;100.00
6938;BME280;40040;42.706;23.372;2024-03-23T03:12:07;145017.97;;;3.38;100.00
6938;BME280;40040;42.706;23.372;2024-03-23T03:14:35;144981.16;;;3.23;100.00
6938;BME280;40040;42.706;23.372;2024-03-23T03:17:01;145008.13;;;3.34;100.00
6938;BME280;40040;42.706;23.372;2024-03-23T03:19:27;144997.13;;;3.29;100.00
6938;BME280;40040;42.706;23.372;2024-03-23T03:21:53;145008.13;;;3.34;100.00
6938;BME280;40040;42.706;23.372;2024-03-23T03:24:20;145005.66;;;3.33;100.00
6938;BME280;40040;42.706;23.372;2024-03-23T03:26:45;145000.81;;;3.31;100.00
6938;BME280;40040;42.706;23.372;2024-03-23T03:29:12;144995.88;;;3.29;100.00
6938;BME280;40040;42.706;23.372;2024-03-23T03:31:39;144988.53;;;3.26;100.00
6938;BME280;40040;42.706;23.372;2024-03-23T03:34:06;144981.16;;;3.23;100.00
6938;BME280;40040;42.706;23.372;2024-03-23T03:36:32;144961.53;;;3.15;100.00
6938;BME280;40040;42.706;23.372;2024-03-23T03:38:58;144979.97;;;3.22;100.00
6938;BME280;40040;42.706;23.372;2024-03-23T03:41:24;144941.91;;;3.07;100.00
6938;BME280;40040;42.706;23.372;2024-03-23T03:43:51;144941.91;;;3.07;100.00
6938;BME280;40040;42.706;23.372;2024-03-23T03:46:17;144959.06;;;3.14;100.00
6938;BME280;40040;42.706;23.372;2024-03-23T03:48:45;144962.78;;;3.15;100.00
6938;BME280;40040;42.706;23.372;2024-03-23T03:51:13;144956.63;;;3.13;100.00
6938;BME280;40040;42.706;23.372;2024-03-23T03:53:40;144956.63;;;3.13;100.00
6938;BME280;40040;42.706;23.372;2024-03-23T03:56:06;144927.22;;;3.01;100.00
6938;BME280;40040;42.706;23.372;2024-03-23T03:58:32;144955.41;;;3.12;100.00
6938;BME280;40040;42.706;23.372;2024-03-23T04:00:59;144948.06;;;3.09;100.00
6938;BME280;40040;42.706;23.372;2024-03-23T04:03:25;144946.81;;;3.09;100.00
6938;BME280;40040;42.706;23.372;2024-03-23T04:05:53;144944.38;;;3.08;100.00
6938;BME280;40040;42.706;23.372;2024-03-23T04:08:19;144939.47;;;3.06;100.00
6938;BME280;40040;42.706;23.372;2024-03-23T04:10:46;144912.47;;;2.95;100.00
6938;BME280;40040;42.706;23.372;2024-03-23T04:13:12;144922.31;;;2.99;100.00
6938;BME280;40040;42.706;23.372;2024-03-23T04:15:40;144941.91;;;3.07;100.00
6938;BME280;40040;42.706;23.372;2024-03-23T04:18:06;144907.63;;;2.93;100.00
6938;BME280;40040;42.706;23.372;2024-03-23T04:20:32;144914.97;;;2.96;100.00
6938;BME280;40040;42.706;23.372;2024-03-23T04:22:59;144911.28;;;2.94;100.00
6938;BME280;40040;42.706;23.372;2024-03-23T04:25:26;144900.22;;;2.90;100.00
6938;BME280;40040;42.706;23.372;2024-03-23T04:27:52;144910.03;;;2.94;100.00
6938;BME280;40040;42.706;23.372;2024-03-23T04:30:19;144924.78;;;3.00;100.00
6938;BME280;40040;42.706;23.372;2024-03-23T04:32:45;144924.78;;;3.00;100.00
6938;BME280;40040;42.706;23.372;2024-03-23T04:35:13;144925.97;;;3.00;100.00
6938;BME280;40040;42.706;23.372;2024-03-23T04:37:39;144891.63;;;2.86;100.00
6938;BME280;40040;42.706;23.372;2024-03-23T04:40:09;144921.06;;;2.98;100.00
6938;BME280;40040;42.706;23.372;2024-03-23T04:42:36;144914.97;;;2.96;100.00
6938;BME280;40040;42.706;23.372;2024-03-23T04:45:03;144852.44;;;2.70;100.00
6938;BME280;40040;42.706;23.372;2024-03-23T04:47:31;144922.31;;;2.99;100.00
6938;BME280;40040;42.706;23.372;2024-03-23T04:49:58;144885.53;;;2.84;100.00
6938;BME280;40040;42.706;23.372;2024-03-23T04:52:24;144901.47;;;2.90;100.00
6938;BME280;40040;42.706;23.372;2024-03-23T04:54:50;144934.56;;;3.04;100.00
6938;BME280;40040;42.706;23.372;2024-03-23T04:57:18;144938.22;;;3.05;100.00
6938;BME280;40040;42.706;23.372;2024-03-23T04:59:44;144917.38;;;2.97;100.00
6938;BME280;40040;42.706;23.372;2024-03-23T05:02:11;144939.47;;;3.06;100.00
6938;BME280;40040;42.706;23.372;2024-03-23T05:04:36;144946.81;;;3.09;100.00
6938;BME280;40040;42.706;23.372;2024-03-23T05:07:04;144959.06;;;3.14;100.00
6938;BME280;40040;42.706;23.372;2024-03-23T05:09:29;144929.63;;;3.02;100.00
6938;BME280;40040;42.706;23.372;2024-03-23T05:11:58;144967.66;;;3.17;100.00
6938;BME280;40040;42.706;23.372;2024-03-23T05:14:26;144978.72;;;3.22;100.00
6938;BME280;40040;42.706;23.372;2024-03-23T05:16:53;144951.72;;;3.11;99.45
6938;BME280;40040;42.706;23.372;2024-03-23T05:19:18;145000.81;;;3.31;99.57
6938;BME280;40040;42.706;23.372;2024-03-23T05:21:45;145022.84;;;3.40;98.85
6938;BME280;40040;42.706;23.372;2024-03-23T05:24:11;145032.66;;;3.44;98.75
6938;BME280;40040;42.706;23.372;2024-03-23T05:26:38;145042.50;;;3.48;98.19
6938;BME280;40040;42.706;23.372;2024-03-23T05:29:04;145053.50;;;3.53;98.53
6938;BME280;40040;42.706;23.372;2024-03-23T05:31:33;145070.69;;;3.60;98.18
6938;BME280;40040;42.706;23.372;2024-03-23T05:33:59;145080.50;;;3.64;97.90
6938;BME280;40040;42.706;23.372;2024-03-23T05:36:26;145101.38;;;3.72;96.99
6938;BME280;40040;42.706;23.372;2024-03-23T05:38:52;145125.88;;;3.82;95.95
6938;BME280;40040;42.706;23.372;2024-03-23T05:41:18;145147.97;;;3.91;94.92
6938;BME280;40040;42.706;23.372;2024-03-23T05:43:44;145156.56;;;3.95;93.99
6938;BME280;40040;42.706;23.372;2024-03-23T05:46:11;145170.09;;;4.00;93.24
6938;BME280;40040;42.706;23.372;2024-03-23T05:48:38;145159.00;;;3.96;93.18
6938;BME280;40040;42.706;23.372;2024-03-23T05:51:05;145187.25;;;4.07;93.05
6938;BME280;40040;42.706;23.372;2024-03-23T05:53:31;145201.97;;;4.13;93.04
6938;BME280;40040;42.706;23.372;2024-03-23T05:56:02;145220.38;;;4.21;92.76
6938;BME280;40040;42.706;23.372;2024-03-23T05:58:29;145241.25;;;4.29;93.02
6938;BME280;40040;42.706;23.372;2024-03-23T06:01:00;145262.13;;;4.38;92.04
6938;BME280;40040;42.706;23.372;2024-03-23T06:03:27;145294.06;;;4.51;90.64
6938;BME280;40040;42.706;23.372;2024-03-23T06:05:55;145327.19;;;4.65;89.79
6938;BME280;40040;42.706;23.372;2024-03-23T06:08:21;145364.00;;;4.80;89.70
6938;BME280;40040;42.706;23.372;2024-03-23T06:10:49;145400.88;;;4.95;87.17
6938;BME280;40040;42.706;23.372;2024-03-23T06:13:15;145429.13;;;5.06;86.32
6938;BME280;40040;42.706;23.372;2024-03-23T06:15:42;145459.81;;;5.19;86.02
6938;BME280;40040;42.706;23.372;2024-03-23T06:18:08;145504.06;;;5.37;85.42
6938;BME280;40040;42.706;23.372;2024-03-23T06:20:35;145540.91;;;5.52;84.25
6938;BME280;40040;42.706;23.372;2024-03-23T06:23:02;145593.75;;;5.73;84.05
6938;BME280;40040;42.706;23.372;2024-03-23T06:25:29;145624.50;;;5.86;82.74
6938;BME280;40040;42.706;23.372;2024-03-23T06:27:55;145657.72;;;6.00;81.12
6938;BME280;40040;42.706;23.372;2024-03-23T06:30:23;145671.22;;;6.05;80.66
6938;BME280;40040;42.706;23.372;2024-03-23T06:32:49;145661.41;;;6.01;81.41
6938;BME280;40040;42.706;23.372;2024-03-23T06:35:16;145710.56;;;6.21;80.98
6938;BME280;40040;42.706;23.372;2024-03-23T06:37:41;145730.25;;;6.29;81.67
6938;BME280;40040;42.706;23.372;2024-03-23T06:40:10;145779.41;;;6.49;81.33
6938;BME280;40040;42.706;23.372;2024-03-23T06:42:36;145840.94;;;6.74;79.70
6938;BME280;40040;42.706;23.372;2024-03-23T06:45:04;145882.75;;;6.92;78.01
6938;BME280;40040;42.706;23.372;2024-03-23T06:47:30;145941.78;;;7.16;76.11
6938;BME280;40040;42.706;23.372;2024-03-23T06:49:57;146003.31;;;7.41;75.88
6938;BME280;40040;42.706;23.372;2024-03-23T06:52:23;146021.75;;;7.48;74.99
6938;BME280;40040;42.706;23.372;2024-03-23T06:54:49;146045.16;;;7.58;74.43
6938;BME280;40040;42.706;23.372;2024-03-23T06:57:17;146059.91;;;7.64;74.03
6938;BME280;40040;42.706;23.372;2024-03-23T06:59:43;146100.53;;;7.80;71.38
6938;BME280;40040;42.706;23.372;2024-03-23T07:02:10;146064.84;;;7.66;69.73
6938;BME280;40040;42.706;23.372;2024-03-23T07:04:36;146023.00;;;7.49;69.72
6938;BME280;40040;42.706;23.372;2024-03-23T07:07:05;146091.94;;;7.77;70.83
6938;BME280;40040;42.706;23.372;2024-03-23T07:09:31;146059.91;;;7.64;71.15
6938;BME280;40040;42.706;23.372;2024-03-23T07:11:57;146082.06;;;7.73;71.69
6938;BME280;40040;42.706;23.372;2024-03-23T07:14:25;146118.97;;;7.88;71.33
6938;BME280;40040;42.706;23.372;2024-03-23T07:16:51;146179.31;;;8.13;69.71
6938;BME280;40040;42.706;23.372;2024-03-23T07:19:17;146226.16;;;8.32;67.72
6938;BME280;40040;42.706;23.372;2024-03-23T07:21:44;146207.72;;;8.24;67.25
6938;BME280;40040;42.706;23.372;2024-03-23T07:24:10;146208.91;;;8.25;67.82
6938;BME280;40040;42.706;23.372;2024-03-23T07:26:37;146232.34;;;8.34;68.24
6938;BME280;40040;42.706;23.372;2024-03-23T07:29:03;146247.13;;;8.40;68.61
6938;BME280;40040;42.706;23.372;2024-03-23T07:31:31;146292.69;;;8.59;66.17
6938;BME280;40040;42.706;23.372;2024-03-23T07:33:57;146297.63;;;8.61;65.63
6938;BME280;40040;42.706;23.372;2024-03-23T07:36:24;146286.50;;;8.56;65.15
6938;BME280;40040;42.706;23.372;2024-03-23T07:38:50;146282.81;;;8.55;66.54
6938;BME280;40040;42.706;23.372;2024-03-23T07:41:19;146319.81;;;8.70;66.44
6938;BME280;40040;42.706;23.372;2024-03-23T07:43:46;146398.63;;;9.02;65.48
6938;BME280;40040;42.706;23.372;2024-03-23T07:46:14;146446.69;;;9.22;62.81
6938;BME280;40040;42.706;23.372;2024-03-23T07:48:42;146484.91;;;9.37;62.28
6938;BME280;40040;42.706;23.372;2024-03-23T07:51:11;146533.00;;;9.57;62.27
6938;BME280;40040;42.706;23.372;2024-03-23T07:53:37;146560.09;;;9.68;62.04
6938;BME280;40040;42.706;23.372;2024-03-23T07:56:06;146645.16;;;10.02;61.69
6938;BME280;40040;42.706;23.372;2024-03-23T07:58:32;146673.59;;;10.14;59.97
6938;BME280;40040;42.706;23.372;2024-03-23T08:01:04;146687.19;;;10.19;59.74
6938;BME280;40040;42.706;23.372;2024-03-23T08:03:30;146755.00;;;10.47;59.02
6938;BME280;40040;42.706;23.372;2024-03-23T08:06:06;146762.41;;;10.50;57.86
6938;BME280;40040;42.706;23.372;2024-03-23T08:08:32;146799.38;;;10.65;59.03
6938;BME280;40040;42.706;23.372;2024-03-23T08:10:59;146853.72;;;10.87;57.95
6938;BME280;40040;42.706;23.372;2024-03-23T08:13:24;146851.22;;;10.86;58.24
6938;BME280;40040;42.706;23.372;2024-03-23T08:15:51;146868.50;;;10.93;57.63
6938;BME280;40040;42.706;23.372;2024-03-23T08:18:17;146917.91;;;11.13;58.24
6938;BME280;40040;42.706;23.372;2024-03-23T08:20:44;146952.47;;;11.27;57.56
6938;BME280;40040;42.706;23.372;2024-03-23T08:23:11;146993.19;;;11.44;56.58
6938;BME280;40040;42.706;23.372;2024-03-23T08:25:38;147016.66;;;11.54;55.69
6938;BME280;40040;42.706;23.372;2024-03-23T08:28:04;147005.50;;;11.49;55.79
6938;BME280;40040;42.706;23.372;2024-03-23T08:30:31;146969.75;;;11.34;56.40
6938;BME280;40040;42.706;23.372;2024-03-23T08:32:56;146949.97;;;11.26;58.35
6938;BME280;40040;42.706;23.372;2024-03-23T08:35:24;146975.88;;;11.37;57.02
6938;BME280;40040;42.706;23.372;2024-03-23T08:37:50;147024.06;;;11.57;55.29
6938;BME280;40040;42.706;23.372;2024-03-23T08:40:18;147095.69;;;11.86;54.25
6938;BME280;40040;42.706;23.372;2024-03-23T08:42:44;147176.03;;;12.18;52.54
6938;BME280;40040;42.706;23.372;2024-03-23T08:45:11;147252.63;;;12.50;51.36
6938;BME280;40040;42.706;23.372;2024-03-23T08:47:36;147384.88;;;13.03;50.91
6938;BME280;40040;42.706;23.372;2024-03-23T08:50:04;147489.94;;;13.46;48.45
6938;BME280;40040;42.706;23.372;2024-03-23T08:52:30;147504.81;;;13.52;48.24
6938;BME280;40040;42.706;23.372;2024-03-23T08:54:56;147553.06;;;13.72;48.42
6938;BME280;40040;42.706;23.372;2024-03-23T08:57:24;147502.34;;;13.51;48.79
6938;BME280;40040;42.706;23.372;2024-03-23T08:59:50;147513.47;;;13.55;48.54
6938;BME280;40040;42.706;23.372;2024-03-23T09:02:17;147587.69;;;13.86;48.10
6938;BME280;40040;42.706;23.372;2024-03-23T09:04:44;147666.81;;;14.18;47.43
6938;BME280;40040;42.706;23.372;2024-03-23T09:07:10;147738.66;;;14.47;46.83
6938;BME280;40040;42.706;23.372;2024-03-23T09:09:38;147869.84;;;15.00;44.65
6938;BME280;40040;42.706;23.372;2024-03-23T09:12:05;147971.41;;;15.41;44.21
6938;BME280;40040;42.706;23.372;2024-03-23T09:14:32;148072.97;;;15.83;42.65
6938;BME280;40040;42.706;23.372;2024-03-23T09:16:59;148125.00;;;16.04;42.25
6938;BME280;40040;42.706;23.372;2024-03-23T09:19:27;148239.03;;;16.50;40.60
6938;BME280;40040;42.706;23.372;2024-03-23T09:21:53;148365.47;;;17.01;39.33
6938;BME280;40040;42.706;23.372;2024-03-23T09:24:20;148424.97;;;17.25;39.03
6938;BME280;40040;42.706;23.372;2024-03-23T09:26:46;148508.13;;;17.59;38.70
6938;BME280;40040;42.706;23.372;2024-03-23T09:29:13;148493.22;;;17.53;38.33
6938;BME280;40040;42.706;23.372;2024-03-23T09:31:41;148521.75;;;17.64;38.04
6938;BME280;40040;42.706;23.372;2024-03-23T09:34:08;148547.78;;;17.75;38.11
6938;BME280;40040;42.706;23.372;2024-03-23T09:36:33;148638.34;;;18.12;37.76
6938;BME280;40040;42.706;23.372;2024-03-23T09:39:00;148747.63;;;18.56;37.20
6938;BME280;40040;42.706;23.372;2024-03-23T09:41:26;148825.81;;;18.87;36.74
6938;BME280;40040;42.706;23.372;2024-03-23T09:43:53;148943.84;;;19.35;35.83
6938;BME280;40040;42.706;23.372;2024-03-23T09:46:19;149080.44;;;19.90;36.28
6938;BME280;40040;42.706;23.372;2024-03-23T09:48:47;149197.28;;;20.38;34.51
6938;BME280;40040;42.706;23.372;2024-03-23T09:51:13;149309.16;;;20.83;34.12
6938;BME280;40040;42.706;23.372;2024-03-23T09:53:40;149193.56;;;20.36;33.95
6938;BME280;40040;42.706;23.372;2024-03-23T09:56:07;149163.75;;;20.24;33.91
6938;BME280;40040;42.706;23.372;2024-03-23T09:58:34;149314.13;;;20.85;33.37
6938;BME280;40040;42.706;23.372;2024-03-23T10:01:01;149376.31;;;21.10;33.60
6938;BME280;40040;42.706;23.372;2024-03-23T10:03:28;149338.97;;;20.95;33.76
6938;BME280;40040;42.706;23.372;2024-03-23T10:06:02;149494.47;;;21.58;32.24
6938;BME280;40040;42.706;23.372;2024-03-23T10:08:30;149550.47;;;21.80;31.88
6938;BME280;40040;42.706;23.372;2024-03-23T10:10:56;149549.22;;;21.80;31.57
6938;BME280;40040;42.706;23.372;2024-03-23T10:13:27;149544.25;;;21.78;31.43
6938;BME280;40040;42.706;23.372;2024-03-23T10:15:55;149518.06;;;21.67;32.85
6938;BME280;40040;42.706;23.372;2024-03-23T10:18:24;149595.28;;;21.98;32.27
6938;BME280;40040;42.706;23.372;2024-03-23T10:21:08;149682.34;;;22.33;31.08
6938;BME280;40040;42.706;23.372;2024-03-23T10:23:37;149640.03;;;22.16;30.59
6938;BME280;40040;42.706;23.372;2024-03-23T10:26:14;149615.16;;;22.06;31.07
6938;BME280;40040;42.706;23.372;2024-03-23T10:29:04;149666.16;;;22.27;30.21
6938;BME280;40040;42.706;23.372;2024-03-23T10:31:34;149714.72;;;22.47;31.67
6938;BME280;40040;42.706;23.372;2024-03-23T10:34:02;149655.00;;;22.22;31.78
6938;BME280;40040;42.706;23.372;2024-03-23T10:36:30;149669.91;;;22.28;31.69
6938;BME280;40040;42.706;23.372;2024-03-23T10:38:57;149689.84;;;22.37;31.01
6938;BME280;40040;42.706;23.372;2024-03-23T10:41:26;149737.16;;;22.56;30.20
6938;BME280;40040;42.706;23.372;2024-03-23T10:43:55;149772.03;;;22.70;30.51
6938;BME280;40040;42.706;23.372;2024-03-23T10:46:21;149774.50;;;22.71;30.14
6938;BME280;40040;42.706;23.372;2024-03-23T10:48:48;149779.47;;;22.73;30.33
6938;BME280;40040;42.706;23.372;2024-03-23T10:51:14;149779.47;;;22.73;31.44
6938;BME280;40040;42.706;23.372;2024-03-23T10:53:43;149916.44;;;23.28;29.71
6938;BME280;40040;42.706;23.372;2024-03-23T10:56:11;149794.38;;;22.79;30.64
6938;BME280;40040;42.706;23.372;2024-03-23T10:58:40;149652.47;;;22.21;31.56
6938;BME280;40040;42.706;23.372;2024-03-23T11:01:06;149432.25;;;21.33;31.89
6938;BME280;40040;42.706;23.372;2024-03-23T11:03:34;149372.59;;;21.08;32.63
6938;BME280;40040;42.706;23.372;2024-03-23T11:06:00;149352.72;;;21.00;32.83
6938;BME280;40040;42.706;23.372;2024-03-23T11:08:32;149458.38;;;21.43;32.36
6938;BME280;40040;42.706;23.372;2024-03-23T11:11:17;149607.72;;;22.03;30.84
6938;BME280;40040;42.706;23.372;2024-03-23T11:13:44;149748.34;;;22.60;29.33
6938;BME280;40040;42.706;23.372;2024-03-23T11:16:14;149937.59;;;23.36;29.38
6938;BME280;40040;42.706;23.372;2024-03-23T11:18:41;150027.31;;;23.73;28.95
6938;BME280;40040;42.706;23.372;2024-03-23T11:21:07;150200.53;;;24.42;27.76
6938;BME280;40040;42.706;23.372;2024-03-23T11:23:34;150237.88;;;24.58;27.00
6938;BME280;40040;42.706;23.372;2024-03-23T11:26:00;150310.19;;;24.87;26.27
6938;BME280;40040;42.706;23.372;2024-03-23T11:28:28;150365.06;;;25.09;26.67
6938;BME280;40040;42.706;23.372;2024-03-23T11:30:54;150434.91;;;25.37;26.46
6938;BME280;40040;42.706;23.372;2024-03-23T11:33:20;150427.38;;;25.34;25.55
6938;BME280;40040;42.706;23.372;2024-03-23T11:35:46;150275.31;;;24.73;26.85
6938;BME280;40040;42.706;23.372;2024-03-23T11:38:15;150130.75;;;24.14;26.70
6938;BME280;40040;42.706;23.372;2024-03-23T11:40:42;149989.91;;;23.58;27.93
6938;BME280;40040;42.706;23.372;2024-03-23T11:43:10;149876.53;;;23.12;28.05
6938;BME280;40040;42.706;23.372;2024-03-23T11:45:40;149874.06;;;23.11;28.20
6938;BME280;40040;42.706;23.372;2024-03-23T11:48:08;149956.28;;;23.44;28.24
6938;BME280;40040;42.706;23.372;2024-03-23T11:50:36;150059.66;;;23.86;26.99
6938;BME280;40040;42.706;23.372;2024-03-23T11:53:12;150034.75;;;23.76;27.11
6938;BME280;40040;42.706;23.372;2024-03-23T11:55:46;149886.50;;;23.16;27.66
6938;BME280;40040;42.706;23.372;2024-03-23T11:58:13;149691.03;;;22.37;27.91
6938;BME280;40040;42.706;23.372;2024-03-23T12:00:41;149658.72;;;22.24;28.67
6938;BME280;40040;42.706;23.372;2024-03-23T12:03:08;149725.88;;;22.51;28.49
6938;BME280;40040;42.706;23.372;2024-03-23T12:05:36;149877.81;;;23.12;27.46
6938;BME280;40040;42.706;23.372;2024-03-23T12:08:22;149966.28;;;23.48;27.67
6938;BME280;40040;42.706;23.372;2024-03-23T12:10:50;150113.28;;;24.07;27.05
6938;BME280;40040;42.706;23.372;2024-03-23T12:13:18;150200.53;;;24.42;25.95
6938;BME280;40040;42.706;23.372;2024-03-23T12:15:49;150231.63;;;24.55;26.87
6938;BME280;40040;42.706;23.372;2024-03-23T12:18:15;150292.75;;;24.80;25.77
6938;BME280;40040;42.706;23.372;2024-03-23T12:20:42;150360.09;;;25.07;25.31
6938;BME280;40040;42.706;23.372;2024-03-23T12:23:09;150305.22;;;24.85;24.95
6938;BME280;40040;42.706;23.372;2024-03-23T12:25:37;150158.13;;;24.25;25.12
6938;BME280;40040;42.706;23.372;2024-03-23T12:28:04;150023.53;;;23.71;26.49
6938;BME280;40040;42.706;23.372;2024-03-23T12:30:32;149781.94;;;22.74;27.24
6938;BME280;40040;42.706;23.372;2024-03-23T12:33:00;149701.00;;;22.41;26.76
6938;BME280;40040;42.706;23.372;2024-03-23T12:35:27;149701.00;;;22.41;27.59
6938;BME280;40040;42.706;23.372;2024-03-23T12:37:52;149729.63;;;22.53;27.89
6938;BME280;40040;42.706;23.372;2024-03-23T12:40:19;149786.94;;;22.76;27.72
6938;BME280;40040;42.706;23.372;2024-03-23T12:42:45;149780.72;;;22.73;27.58
6938;BME280;40040;42.706;23.372;2024-03-23T12:45:12;149826.78;;;22.92;28.31
6938;BME280;40040;42.706;23.372;2024-03-23T12:47:37;149805.63;;;22.83;27.92
6938;BME280;40040;42.706;23.372;2024-03-23T12:50:06;149806.88;;;22.84;27.70
6938;BME280;40040;42.706;23.372;2024-03-23T12:52:32;149837.97;;;22.96;26.81
6938;BME280;40040;42.706;23.372;2024-03-23T12:54:59;149801.88;;;22.82;27.09
6938;BME280;40040;42.706;23.372;2024-03-23T12:57:25;149737.16;;;22.56;27.74
6938;BME280;40040;42.706;23.372;2024-03-23T12:59:52;149668.69;;;22.28;27.47
6938;BME280;40040;42.706;23.372;2024-03-23T13:02:19;149626.34;;;22.11;27.97
6938;BME280;40040;42.706;23.372;2024-03-23T13:04:46;149605.19;;;22.02;27.90
6938;BME280;40040;42.706;23.372;2024-03-23T13:07:14;149505.63;;;21.62;28.33
6938;BME280;40040;42.706;23.372;2024-03-23T13:09:41;149490.75;;;21.56;27.97
6938;BME280;40040;42.706;23.372;2024-03-23T13:12:08;149444.69;;;21.38;28.07
6938;BME280;40040;42.706;23.372;2024-03-23T13:14:35;149353.91;;;21.01;28.23
6938;BME280;40040;42.706;23.372;2024-03-23T13:17:00;149371.34;;;21.08;28.48
6938;BME280;40040;42.706;23.372;2024-03-23T13:19:29;149397.44;;;21.18;28.70
6938;BME280;40040;42.706;23.372;2024-03-23T13:21:56;149326.56;;;20.90;28.17
6938;BME280;40040;42.706;23.372;2024-03-23T13:24:25;149341.44;;;20.96;28.43
6938;BME280;40040;42.706;23.372;2024-03-23T13:26:52;149254.44;;;20.61;27.80
6938;BME280;40040;42.706;23.372;2024-03-23T13:29:19;149140.06;;;20.14;28.66
6938;BME280;40040;42.706;23.372;2024-03-23T13:31:45;149174.91;;;20.29;28.64
6938;BME280;40040;42.706;23.372;2024-03-23T13:34:12;149142.53;;;20.15;28.55
6938;BME280;40040;42.706;23.372;2024-03-23T13:36:40;149125.16;;;20.08;28.27
6938;BME280;40040;42.706;23.372;2024-03-23T13:39:07;149174.91;;;20.29;28.28
6938;BME280;40040;42.706;23.372;2024-03-23T13:41:38;149161.25;;;20.23;28.04
6938;BME280;40040;42.706;23.372;2024-03-23T13:44:05;149177.38;;;20.30;28.16